Monday, September 1, 2014, 2:36 PM EDT

KGED, Georgetown Sussex Co Airport

Location: Georgetown, DE, United States Lat: 38.683
Local Time: 2:36 PM EDT (18:36 GMT) Lon: -75.367
Time Zone: US/Eastern Elev: 52 ft

Show me the last for .
Show Decoded

2014-09-01 13:54 METAR KGED 011754Z AUTO 19009KT 10SM FEW036 SCT045 BKN055 32/23 A2999 RMK AO2
                 LTG DSNT SE SLP155 60001 T03220228 10322 20256 58016 =
2014-09-01 12:54 METAR KGED 011654Z AUTO 19010KT 10SM FEW030 BKN046 31/22 A3001 RMK AO2 SLP160
                 T03110222 =
2014-09-01 11:54 METAR KGED 011554Z AUTO 17011KT 10SM BKN050 29/23 A3003 RMK AO2 SLP167 T02940228
                 =
2014-09-01 10:54 METAR KGED 011454Z AUTO 17009KT 10SM CLR 28/23 A3004 RMK AO2 RAE1355 SLP171
                 P0001 60001 T02830228 55005 =
2014-09-01 09:54 METAR KGED 011354Z AUTO 18009KT 10SM -RA FEW070 FEW085 SCT110 26/24 A3004 RMK
                 AO2 SLP170 P0000 T02610239 =
2014-09-01 08:54 METAR KGED 011254Z AUTO 19007KT 10SM -RA SCT055 BKN120 26/23 A3005 RMK AO2 RAB50
                 SLP174 P0000 T02610233 =
2014-09-01 07:54 METAR KGED 011154Z AUTO 19007KT 10SM FEW075 SCT120 25/23 A3005 RMK AO2 RAB23E37
                 SLP176 P0000 60001 70002 T02500233 10250 20239 51010 =
2014-09-01 06:54 METAR KGED 011054Z AUTO 16007KT 7SM FEW090 FEW120 24/23 A3004 RMK AO2 RAB39E51
                 SLP173 P0001 T02440233 =
2014-09-01 05:54 METAR KGED 010954Z AUTO 16006KT 10SM CLR 25/23 A3003 RMK AO2 SLP169 T02500233 =
2014-09-01 04:54 METAR KGED 010854Z AUTO 17008KT 10SM SCT110 25/23 A3002 RMK AO2 RAE03 SLP165
                 P0000 60000 T02500233 55003 =
2014-09-01 03:54 METAR KGED 010754Z AUTO 18007KT 8SM -RA FEW055 FEW110 25/23 A3001 RMK AO2 RAB51
                 SLP162 P0000 T02500233 =
2014-09-01 02:54 METAR KGED 010654Z AUTO 17008KT 10SM CLR 24/23 A3002 RMK AO2 SLP164 T02440228 =
2014-09-01 01:54 METAR KGED 010554Z AUTO 17009KT 10SM FEW033 FEW085 24/23 A3003 RMK AO2 RAE40
                 SLP168 P0000 60001 T02440233 10272 20244 58004 =
2014-09-01 00:54 METAR KGED 010454Z AUTO 18007KT 9SM -RA FEW040 FEW049 SCT110 25/23 A3005 RMK AO2
                 RAB17 SLP175 P0001 T02500228 403390217 =
2014-08-31 23:54 METAR KGED 010354Z AUTO 18011KT 10SM BKN055 26/22 A3005 RMK AO2 LTG DSNT W AND
                 NW SLP174 T02560222 =
2014-08-31 22:54 METAR KGED 010254Z AUTO 17013KT 10SM CLR 26/22 A3004 RMK AO2 SLP172 T02560222
                 50002 =
2014-08-31 21:54 METAR KGED 010154Z AUTO 17013KT 10SM CLR 26/22 A3004 RMK AO2 SLP173 T02560222 =
2014-08-31 20:54 METAR KGED 010054Z AUTO 17014KT 10SM CLR 26/22 A3004 RMK AO2 SLP173 T02610222 =
2014-08-31 19:54 METAR KGED 312354Z AUTO 17013KT 10SM CLR 27/23 A3004 RMK AO2 SLP170 T02720228
                 10339 20272 53005 =
2014-08-31 18:54 METAR KGED 312254Z AUTO 17013KT 10SM CLR 29/22 A3002 RMK AO2 SLP165 T02940222 =
2014-08-31 16:54 METAR KGED 312054Z AUTO 19016G22KT 10SM CLR 32/21 A3002 RMK AO2 SLP165 T03220206
                 58014 =
2014-08-31 15:54 METAR KGED 311954Z AUTO 20012G22KT 10SM CLR 33/21 A3004 RMK AO2 SLP170 T03280206
                 =
2014-08-31 14:54 METAR KGED 311854Z AUTO 21012G20KT 10SM CLR 33/21 A3005 RMK AO2 SLP176 T03280206
                 =

Support USWX by starting your Amazon purchase here.